createdAt,value
2023-01-15T00:01:39.437Z,1.60
2023-01-15T00:04:06.956Z,1.30
2023-01-15T00:06:38.770Z,1.52
2023-01-15T00:09:05.991Z,1.63
2023-01-15T00:11:32.655Z,1.10
2023-01-15T00:13:59.114Z,0.98
2023-01-15T00:16:26.746Z,0.90
2023-01-15T00:18:57.864Z,0.80
2023-01-15T00:21:25.709Z,1.10
2023-01-15T00:24:11.268Z,0.82
2023-01-15T00:26:56.991Z,0.70
2023-01-15T00:29:24.028Z,0.90
2023-01-15T00:31:53.649Z,0.70
2023-01-15T00:34:20.094Z,0.70
2023-01-15T00:36:46.446Z,1.00
2023-01-15T00:39:12.891Z,0.90
2023-01-15T00:41:39.286Z,0.93
2023-01-15T00:44:05.671Z,0.63
2023-01-15T00:46:32.150Z,0.80
2023-01-15T00:48:58.570Z,0.70
2023-01-15T00:51:24.972Z,0.70
2023-01-15T00:53:51.376Z,0.60
2023-01-15T00:56:17.738Z,0.80
2023-01-15T00:58:44.215Z,0.90
2023-01-15T01:01:10.768Z,0.93
2023-01-15T01:03:37.268Z,0.82
2023-01-15T01:06:04.029Z,0.90
2023-01-15T01:08:30.627Z,0.60
2023-01-15T01:11:08.369Z,0.60
2023-01-15T01:13:35.319Z,0.60
2023-01-15T01:16:02.025Z,0.60
2023-01-15T01:18:28.607Z,0.60
2023-01-15T01:20:55.042Z,0.80
2023-01-15T01:23:23.983Z,1.00
2023-01-15T01:25:50.775Z,0.90
2023-01-15T01:28:17.277Z,0.80
2023-01-15T01:30:43.651Z,0.82
2023-01-15T01:33:10.035Z,0.63
2023-01-15T01:35:36.412Z,0.57
2023-01-15T01:38:02.924Z,0.73
2023-01-15T01:40:29.308Z,0.50
2023-01-15T01:42:55.707Z,0.60
2023-01-15T01:45:28.731Z,0.68
2023-01-15T01:48:00.005Z,0.40
2023-01-15T01:50:27.627Z,0.88
2023-01-15T01:52:56.524Z,0.57
2023-01-15T01:55:24.113Z,0.68
2023-01-15T01:57:52.220Z,0.50
2023-01-15T02:00:19.439Z,0.52
2023-01-15T02:02:47.282Z,0.70
2023-01-15T02:05:16.029Z,0.60
2023-01-15T02:07:42.503Z,0.75
2023-01-15T02:10:16.340Z,0.60
2023-01-15T02:12:46.720Z,0.85
2023-01-15T02:15:19.507Z,0.90
2023-01-15T02:17:55.767Z,0.77
2023-01-15T02:20:46.920Z,0.60
2023-01-15T02:23:34.637Z,0.70
2023-01-15T02:26:16.133Z,0.60
2023-01-15T02:28:45.321Z,0.65
2023-01-15T02:31:30.852Z,0.73
2023-01-15T02:34:05.046Z,0.70
2023-01-15T02:36:37.155Z,1.00
2023-01-15T02:39:07.328Z,0.63
2023-01-15T02:41:38.599Z,0.90
2023-01-15T02:44:05.499Z,0.90
2023-01-15T02:46:34.450Z,0.70
2023-01-15T02:49:02.975Z,1.05
2023-01-15T02:51:37.415Z,0.77
2023-01-15T02:54:06.703Z,0.68
2023-01-15T02:56:35.831Z,0.90
2023-01-15T02:59:06.441Z,0.95
2023-01-15T03:01:37.695Z,1.02
2023-01-15T03:04:16.637Z,1.00
2023-01-15T03:06:50.201Z,0.90
2023-01-15T03:09:17.474Z,0.77
2023-01-15T03:11:47.567Z,0.80
2023-01-15T03:14:24.352Z,1.02
2023-01-15T03:16:54.191Z,1.10
2023-01-15T03:19:27.308Z,1.00
2023-01-15T03:22:00.786Z,1.27
2023-01-15T03:24:40.345Z,1.08
2023-01-15T03:27:07.122Z,1.00
2023-01-15T03:29:38.334Z,1.23
2023-01-15T03:32:04.983Z,1.20
2023-01-15T03:34:43.006Z,1.00
2023-01-15T03:37:09.417Z,1.10
2023-01-15T03:39:35.825Z,1.20
2023-01-15T03:42:10.937Z,1.10
2023-01-15T03:44:52.465Z,1.42
2023-01-15T03:48:05.727Z,1.33
2023-01-15T03:50:50.037Z,1.40
2023-01-15T03:53:21.017Z,1.60
2023-01-15T03:55:54.263Z,1.38
2023-01-15T03:58:29.886Z,1.35
2023-01-15T04:00:59.821Z,1.50
2023-01-15T04:03:28.049Z,1.60
2023-01-15T04:05:59.506Z,1.63
2023-01-15T04:08:28.186Z,1.58
2023-01-15T04:10:56.659Z,2.03
2023-01-15T04:13:23.975Z,1.52
2023-01-15T04:15:51.014Z,1.30
2023-01-15T04:18:17.816Z,1.40
2023-01-15T04:20:44.510Z,1.80
2023-01-15T04:23:10.927Z,1.80
2023-01-15T04:25:37.430Z,1.35
2023-01-15T04:28:04.102Z,1.80
2023-01-15T04:30:30.674Z,1.58
2023-01-15T04:32:57.320Z,1.75
2023-01-15T04:35:23.730Z,1.45
2023-01-15T04:37:54.676Z,1.65
2023-01-15T04:40:39.595Z,1.50
2023-01-15T04:43:24.707Z,1.75
2023-01-15T04:45:51.232Z,1.55
2023-01-15T04:48:17.652Z,2.10
2023-01-15T04:50:44.047Z,1.45
2023-01-15T04:53:10.441Z,1.55
2023-01-15T04:55:36.838Z,1.60
2023-01-15T04:58:03.255Z,1.67
2023-01-15T05:00:29.657Z,1.58
2023-01-15T05:02:56.111Z,1.40
2023-01-15T05:05:22.591Z,1.38
2023-01-15T05:07:48.988Z,2.13
2023-01-15T05:10:15.556Z,2.22
2023-01-15T05:12:41.988Z,1.77
2023-01-15T05:15:08.782Z,1.85
2023-01-15T05:17:35.200Z,1.80
2023-01-15T05:20:01.927Z,1.80
2023-01-15T05:22:28.300Z,1.60
2023-01-15T05:24:54.706Z,1.88
2023-01-15T05:27:21.125Z,1.50
2023-01-15T05:29:47.909Z,1.75
2023-01-15T05:32:17.373Z,1.65
2023-01-15T05:34:43.752Z,1.92
2023-01-15T05:37:10.147Z,1.80
2023-01-15T05:39:36.563Z,1.63
2023-01-15T05:42:03.320Z,2.05
2023-01-15T05:44:30.371Z,1.80
2023-01-15T05:47:00.037Z,1.77
2023-01-15T05:49:28.207Z,1.85
2023-01-15T05:51:55.562Z,1.60
2023-01-15T05:54:24.524Z,2.45
2023-01-15T05:56:51.508Z,2.30
2023-01-15T05:59:19.754Z,2.25
2023-01-15T06:01:46.202Z,1.92
2023-01-15T06:04:14.242Z,2.08
2023-01-15T06:06:41.915Z,2.03
2023-01-15T06:09:08.306Z,2.15
2023-01-15T06:11:34.694Z,1.77
2023-01-15T06:14:01.100Z,2.00
2023-01-15T06:16:27.523Z,2.22
2023-01-15T06:18:54.261Z,2.25
2023-01-15T06:21:21.177Z,2.53
2023-01-15T06:23:47.617Z,1.90
2023-01-15T06:26:17.602Z,1.83
2023-01-15T06:28:44.896Z,2.00
2023-01-15T06:31:14.279Z,2.10
2023-01-15T06:33:40.803Z,1.73
2023-01-15T06:36:15.389Z,1.65
2023-01-15T06:38:42.598Z,2.00
2023-01-15T06:41:31.576Z,1.95
2023-01-15T06:44:16.675Z,2.28
2023-01-15T06:47:06.987Z,1.90
2023-01-15T06:49:34.421Z,2.05
2023-01-15T06:52:01.097Z,2.20
2023-01-15T06:54:27.605Z,2.20
2023-01-15T06:56:53.993Z,2.28
2023-01-15T06:59:20.642Z,1.90
2023-01-15T07:01:47.160Z,1.90
2023-01-15T07:04:14.704Z,1.90
2023-01-15T07:06:41.218Z,2.15
2023-01-15T07:09:07.667Z,2.25
2023-01-15T07:11:34.021Z,1.67
2023-01-15T07:14:06.249Z,2.55
2023-01-15T07:16:33.770Z,1.75
2023-01-15T07:19:00.948Z,2.05
2023-01-15T07:21:27.401Z,2.13
2023-01-15T07:23:54.798Z,1.60
2023-01-15T07:26:21.175Z,2.25
2023-01-15T07:28:47.850Z,1.90
2023-01-15T07:31:14.320Z,2.08
2023-01-15T07:33:40.741Z,2.38
2023-01-15T07:36:07.407Z,1.95
2023-01-15T07:38:33.835Z,1.75
2023-01-15T07:41:26.869Z,2.10
2023-01-15T07:44:11.895Z,2.50
2023-01-15T07:46:57.012Z,1.60
2023-01-15T07:49:42.028Z,2.10
2023-01-15T07:52:08.450Z,2.10
2023-01-15T07:54:34.885Z,2.10
2023-01-15T07:57:01.323Z,2.00
2023-01-15T07:59:27.756Z,2.15
2023-01-15T08:01:54.240Z,2.28
2023-01-15T08:04:20.746Z,2.63
2023-01-15T08:06:47.158Z,2.25
2023-01-15T08:09:13.587Z,2.75
2023-01-15T08:11:58.752Z,2.17
2023-01-15T08:14:43.613Z,2.13
2023-01-15T08:17:09.978Z,1.98
2023-01-15T08:19:36.413Z,2.30
2023-01-15T08:22:02.818Z,2.60
2023-01-15T08:24:29.431Z,2.28
2023-01-15T08:26:55.891Z,2.72
2023-01-15T08:29:22.591Z,2.20
2023-01-15T08:31:48.984Z,2.53
2023-01-15T08:34:15.402Z,2.25
2023-01-15T08:36:41.847Z,1.95
2023-01-15T08:39:08.240Z,2.55
2023-01-15T08:41:34.650Z,2.15
2023-01-15T08:44:01.430Z,2.17
2023-01-15T08:46:27.865Z,1.77
2023-01-15T08:48:54.259Z,2.08
2023-01-15T08:51:20.657Z,2.05
2023-01-15T08:53:47.043Z,2.28
2023-01-15T08:56:14.734Z,2.05
2023-01-15T08:58:41.111Z,2.00
2023-01-15T09:01:09.283Z,1.83
2023-01-15T09:03:35.991Z,2.03
2023-01-15T09:06:03.102Z,2.17
2023-01-15T09:08:29.838Z,2.03
2023-01-15T09:11:00.215Z,2.10
2023-01-15T09:13:27.429Z,2.03
2023-01-15T09:15:53.837Z,2.10
2023-01-15T09:18:20.560Z,1.90
2023-01-15T09:20:47.660Z,2.35
2023-01-15T09:23:14.665Z,1.85
2023-01-15T09:25:42.312Z,1.80
2023-01-15T09:28:08.894Z,1.67
2023-01-15T09:30:35.422Z,1.98
2023-01-15T09:33:01.843Z,2.85
2023-01-15T09:35:28.221Z,2.42
2023-01-15T09:37:54.832Z,2.08
2023-01-15T09:40:32.285Z,1.90
2023-01-15T09:43:05.187Z,2.30
2023-01-15T09:45:41.156Z,2.67
2023-01-15T09:48:50.387Z,2.08
2023-01-15T09:51:26.415Z,1.98
2023-01-15T09:54:05.398Z,1.88
2023-01-15T09:56:33.473Z,1.80
2023-01-15T09:59:01.774Z,2.10
2023-01-15T10:01:30.825Z,1.55
2023-01-15T10:04:02.162Z,2.25
2023-01-15T10:06:43.303Z,1.75
2023-01-15T10:09:21.360Z,1.83
2023-01-15T10:12:13.511Z,1.90
2023-01-15T10:14:45.665Z,1.80
2023-01-15T10:17:19.286Z,1.75
2023-01-15T10:19:45.651Z,1.50
2023-01-15T10:22:20.671Z,1.83
2023-01-15T10:24:56.133Z,1.73
2023-01-15T10:27:23.977Z,2.58
2023-01-15T10:29:55.746Z,2.10
2023-01-15T10:32:24.066Z,2.10
2023-01-15T10:35:15.352Z,1.55
2023-01-15T10:37:58.596Z,2.80
2023-01-15T10:40:51.019Z,2.10
2023-01-15T10:43:24.581Z,1.75
2023-01-15T10:45:55.491Z,1.70
2023-01-15T10:48:28.514Z,1.77
2023-01-15T10:50:55.680Z,1.85
2023-01-15T10:53:35.231Z,1.63
2023-01-15T10:56:13.820Z,1.95
2023-01-15T10:58:45.716Z,1.85
2023-01-15T11:01:19.533Z,1.20
2023-01-15T11:03:46.100Z,1.70
2023-01-15T11:06:16.069Z,1.75
2023-01-15T11:11:50.265Z,1.55
2023-01-15T11:14:35.160Z,1.88
2023-01-15T11:17:08.187Z,1.60
2023-01-15T11:19:37.724Z,1.50
2023-01-15T11:22:12.737Z,1.55
2023-01-15T11:24:52.636Z,1.60
2023-01-15T11:27:21.899Z,1.48
2023-01-15T11:29:56.649Z,1.42
2023-01-15T11:32:33.738Z,1.52
2023-01-15T11:35:02.239Z,1.65
2023-01-15T11:37:29.247Z,1.48
2023-01-15T11:39:57.505Z,1.48
2023-01-15T11:42:42.745Z,1.30
2023-01-15T11:45:35.007Z,0.98
2023-01-15T11:48:20.578Z,1.55
2023-01-15T11:50:50.379Z,1.10
2023-01-15T11:53:19.671Z,1.67
2023-01-15T11:56:01.808Z,1.40
2023-01-15T11:58:31.464Z,1.52
2023-01-15T12:01:00.807Z,1.50
2023-01-15T12:03:29.601Z,1.20
2023-01-15T12:05:59.841Z,1.38
2023-01-15T12:08:51.494Z,1.25
2023-01-15T12:11:34.602Z,1.55
2023-01-15T12:14:04.433Z,1.35
2023-01-15T12:16:56.534Z,1.60
2023-01-15T12:19:30.928Z,1.48
2023-01-15T12:22:22.422Z,1.30
2023-01-15T12:24:55.849Z,1.40
2023-01-15T12:27:37.457Z,1.85
2023-01-15T12:30:12.771Z,1.40
2023-01-15T12:32:46.165Z,1.90
2023-01-15T12:35:32.676Z,1.38
2023-01-15T12:38:31.135Z,1.40
2023-01-15T12:41:07.975Z,1.60
2023-01-15T12:43:53.022Z,1.77
2023-01-15T12:46:23.325Z,1.20
2023-01-15T12:48:54.474Z,1.60
2023-01-15T12:51:26.869Z,1.35
2023-01-15T12:53:57.403Z,1.55
2023-01-15T12:56:29.068Z,1.30
2023-01-15T12:59:16.828Z,1.73
2023-01-15T13:02:11.350Z,1.33
2023-01-15T13:04:48.661Z,1.50
2023-01-15T13:07:40.110Z,1.63
2023-01-15T13:10:17.964Z,1.50
2023-01-15T13:12:44.333Z,1.60
2023-01-15T13:15:17.532Z,1.40
2023-01-15T13:18:12.615Z,1.30
2023-01-15T13:20:47.967Z,1.50
2023-01-15T13:23:23.884Z,1.52
2023-01-15T13:26:19.946Z,1.63
2023-01-15T13:29:18.578Z,1.55
2023-01-15T13:32:20.430Z,2.00
2023-01-15T13:35:10.289Z,1.45
2023-01-15T13:37:49.877Z,1.30
2023-01-15T13:40:35.532Z,1.75
2023-01-15T13:43:03.237Z,1.52
2023-01-15T13:45:36.890Z,1.40
2023-01-15T13:48:07.107Z,1.73
2023-01-15T13:50:37.128Z,1.40
2023-01-15T13:53:12.709Z,1.42
2023-01-15T13:55:40.801Z,1.92
2023-01-15T13:58:26.057Z,2.05
2023-01-15T14:01:17.535Z,1.23
2023-01-15T14:03:55.803Z,1.73
2023-01-15T14:06:22.184Z,1.42
2023-01-15T14:08:49.457Z,1.65
2023-01-15T14:11:35.606Z,2.08
2023-01-15T14:14:18.286Z,1.60
2023-01-15T14:19:36.463Z,1.30
2023-01-15T14:22:25.074Z,1.57
2023-01-15T14:24:54.287Z,3.28
2023-01-15T14:27:54.363Z,1.70
2023-01-15T14:31:08.896Z,1.38
2023-01-15T14:33:52.270Z,1.83
2023-01-15T14:36:23.077Z,1.65
2023-01-15T14:38:52.820Z,1.48
2023-01-15T14:41:26.726Z,1.73
2023-01-15T14:43:53.529Z,1.50
2023-01-15T14:46:34.136Z,1.10
2023-01-15T14:49:03.816Z,1.38
2023-01-15T14:51:36.960Z,1.35
2023-01-15T14:54:08.233Z,1.75
2023-01-15T14:56:37.161Z,1.40
2023-01-15T14:59:25.854Z,1.60
2023-01-15T15:01:55.984Z,1.60
2023-01-15T15:04:30.278Z,1.20
2023-01-15T15:06:58.980Z,1.33
2023-01-15T15:09:29.148Z,1.50
2023-01-15T15:12:18.928Z,1.67
2023-01-15T15:14:49.289Z,1.40
2023-01-15T15:17:32.464Z,1.20
2023-01-15T15:20:24.934Z,1.40
2023-01-15T15:22:55.243Z,1.20
2023-01-15T15:25:24.202Z,1.55
2023-01-15T15:28:04.395Z,1.30
2023-01-15T15:30:33.120Z,1.75
2023-01-15T15:33:00.304Z,1.40
2023-01-15T15:35:29.582Z,1.60
2023-01-15T15:37:58.108Z,1.52
2023-01-15T15:40:30.765Z,1.80
2023-01-15T15:43:39.392Z,1.38
2023-01-15T15:46:24.402Z,1.40
2023-01-15T15:48:57.065Z,1.38
2023-01-15T15:51:35.574Z,1.45
2023-01-15T15:54:26.818Z,1.70
2023-01-15T15:57:00.924Z,1.75
2023-01-15T15:59:37.913Z,1.40
2023-01-15T16:02:15.104Z,1.58
2023-01-15T16:04:49.213Z,3.33
2023-01-15T16:07:26.020Z,2.40
2023-01-15T16:09:56.428Z,1.75
2023-01-15T16:12:23.448Z,3.13
2023-01-15T16:14:50.876Z,2.45
2023-01-15T16:17:17.488Z,1.30
2023-01-15T16:19:44.267Z,1.50
2023-01-15T16:22:15.909Z,1.27
2023-01-15T16:24:53.077Z,1.47
2023-01-15T16:27:21.738Z,1.50
2023-01-15T16:29:50.679Z,1.83
2023-01-15T16:32:24.193Z,1.65
2023-01-15T16:35:04.731Z,2.03
2023-01-15T16:37:31.459Z,1.42
2023-01-15T16:39:59.311Z,1.40
2023-01-15T16:42:31.596Z,3.60
2023-01-15T16:45:01.576Z,2.55
2023-01-15T16:47:29.909Z,2.63
2023-01-15T16:50:22.290Z,1.85
2023-01-15T16:52:52.258Z,1.60
2023-01-15T16:55:33.731Z,1.42
2023-01-15T16:58:12.193Z,1.30
2023-01-15T17:00:39.773Z,1.40
2023-01-15T17:03:13.856Z,1.30
2023-01-15T17:05:40.543Z,1.65
2023-01-15T17:08:15.811Z,1.30
2023-01-15T17:10:52.721Z,1.33
2023-01-15T17:13:19.735Z,1.58
2023-01-15T17:15:46.211Z,1.33
2023-01-15T17:18:22.077Z,1.30
2023-01-15T17:20:48.519Z,1.27
2023-01-15T17:23:15.016Z,1.25
2023-01-15T17:25:41.496Z,1.10
2023-01-15T17:28:12.467Z,1.30
2023-01-15T17:30:38.841Z,1.33
2023-01-15T17:33:06.847Z,1.52
2023-01-15T17:35:36.056Z,1.38
2023-01-15T17:38:02.868Z,1.30
2023-01-15T17:40:29.248Z,1.05
2023-01-15T17:42:55.641Z,1.10
2023-01-15T17:45:30.601Z,1.10
2023-01-15T17:47:57.082Z,1.30
2023-01-15T17:50:24.380Z,1.23
2023-01-15T17:52:51.527Z,1.10
2023-01-15T17:55:39.389Z,1.40
2023-01-15T17:58:24.527Z,2.10
2023-01-15T18:01:11.597Z,1.30
2023-01-15T18:04:22.454Z,1.60
2023-01-15T18:06:51.913Z,1.52
2023-01-15T18:09:19.472Z,1.30
2023-01-15T18:11:46.102Z,1.40
2023-01-15T18:14:12.851Z,1.85
2023-01-15T18:16:39.273Z,2.08
2023-01-15T18:19:05.671Z,1.60
2023-01-15T18:21:32.050Z,1.70
2023-01-15T18:23:59.820Z,1.20
2023-01-15T18:26:26.307Z,1.40
2023-01-15T18:28:52.866Z,1.27
2023-01-15T18:31:19.425Z,1.52
2023-01-15T18:33:45.877Z,1.35
2023-01-15T18:36:14.253Z,1.30
2023-01-15T18:38:47.380Z,1.40
2023-01-15T18:41:34.495Z,1.30
2023-01-15T18:44:26.825Z,1.70
2023-01-15T18:46:55.991Z,1.60
2023-01-15T18:49:22.384Z,1.52
2023-01-15T18:52:08.734Z,1.30
2023-01-15T18:54:36.076Z,1.50
2023-01-15T18:57:02.724Z,1.67
2023-01-15T18:59:29.121Z,1.50
2023-01-15T19:01:56.481Z,1.42
2023-01-15T19:04:22.977Z,1.17
2023-01-15T19:06:49.370Z,1.40
2023-01-15T19:09:16.756Z,1.17
2023-01-15T19:11:44.047Z,1.45
2023-01-15T19:14:29.096Z,1.30
2023-01-15T19:17:14.423Z,1.33
2023-01-15T19:19:43.136Z,1.75
2023-01-15T19:22:29.284Z,1.40
2023-01-15T19:24:55.664Z,1.80
2023-01-15T19:27:22.095Z,1.83
2023-01-15T19:29:48.469Z,1.30
2023-01-15T19:32:15.068Z,1.70
2023-01-15T19:34:41.566Z,1.50
2023-01-15T19:37:08.076Z,1.65
2023-01-15T19:39:34.475Z,1.58
2023-01-15T19:42:19.479Z,1.55
2023-01-15T19:45:04.490Z,1.30
2023-01-15T19:47:55.075Z,1.50
2023-01-15T19:50:25.284Z,1.30
2023-01-15T19:52:53.992Z,1.30
2023-01-15T19:55:22.535Z,2.00
2023-01-15T19:58:02.521Z,1.50
2023-01-15T20:00:30.014Z,1.30
2023-01-15T20:02:57.404Z,1.50
2023-01-15T20:05:25.852Z,1.65
2023-01-15T20:07:52.279Z,1.40
2023-01-15T20:10:20.571Z,1.85
2023-01-15T20:13:05.765Z,1.60
2023-01-15T20:15:32.784Z,1.65
2023-01-15T20:17:59.257Z,1.50
2023-01-15T20:20:26.145Z,1.27
2023-01-15T20:22:52.669Z,1.40
2023-01-15T20:25:19.111Z,1.55
2023-01-15T20:27:45.496Z,1.40
2023-01-15T20:30:14.423Z,1.35
2023-01-15T20:32:43.049Z,1.35
2023-01-15T20:35:15.417Z,1.50
2023-01-15T20:37:41.830Z,1.50
2023-01-15T20:40:09.525Z,1.60
2023-01-15T20:42:54.641Z,2.10
2023-01-15T20:45:21.083Z,1.65
2023-01-15T20:48:06.146Z,1.40
2023-01-15T20:50:36.195Z,1.70
2023-01-15T20:53:04.036Z,1.40
2023-01-15T20:55:38.953Z,1.42
2023-01-15T20:58:12.231Z,1.70
2023-01-15T21:00:38.656Z,1.98
2023-01-15T21:03:05.958Z,1.60
2023-01-15T21:05:32.405Z,1.38
2023-01-15T21:07:58.785Z,1.58
2023-01-15T21:10:25.652Z,1.52
2023-01-15T21:12:52.899Z,2.00
2023-01-15T21:15:19.635Z,1.88
2023-01-15T21:17:47.068Z,2.30
2023-01-15T21:20:15.271Z,1.75
2023-01-15T21:22:41.786Z,2.88
2023-01-15T21:25:13.107Z,3.65
2023-01-15T21:27:39.476Z,2.00
2023-01-15T21:30:07.081Z,1.88
2023-01-15T21:32:33.465Z,1.63
2023-01-15T21:34:59.839Z,1.40
2023-01-15T21:37:26.392Z,1.67
2023-01-15T21:39:52.829Z,1.42
2023-01-15T21:42:40.051Z,1.52
2023-01-15T21:45:07.838Z,1.83
2023-01-15T21:47:36.619Z,1.77
2023-01-15T21:50:05.068Z,1.98
2023-01-15T21:52:33.357Z,1.73
2023-01-15T21:54:59.914Z,1.50
2023-01-15T21:57:28.619Z,1.58
2023-01-15T21:59:55.001Z,1.33
2023-01-15T22:02:23.119Z,1.98
2023-01-15T22:04:49.807Z,1.70
2023-01-15T22:07:17.234Z,1.90
2023-01-15T22:09:43.635Z,2.53
2023-01-15T22:12:10.140Z,4.10
2023-01-15T22:14:36.566Z,1.90
2023-01-15T22:17:04.097Z,1.30
2023-01-15T22:19:31.711Z,1.60
2023-01-15T22:22:00.624Z,1.63
2023-01-15T22:24:28.769Z,1.60
2023-01-15T22:26:55.735Z,1.80
2023-01-15T22:29:23.689Z,1.95
2023-01-15T22:31:50.616Z,1.80
2023-01-15T22:34:17.218Z,1.88
2023-01-15T22:36:43.628Z,1.77
2023-01-15T22:39:10.148Z,1.73
2023-01-15T22:41:55.143Z,1.77
2023-01-15T22:44:21.514Z,1.83
2023-01-15T22:46:50.350Z,2.40
2023-01-15T22:49:17.440Z,1.95
2023-01-15T22:51:43.874Z,1.60
2023-01-15T22:54:10.330Z,2.00
2023-01-15T22:56:36.676Z,1.98
2023-01-15T22:59:03.170Z,1.60
2023-01-15T23:01:29.667Z,1.50
2023-01-15T23:03:56.279Z,1.73
2023-01-15T23:06:25.257Z,1.67
2023-01-15T23:08:59.088Z,1.85
2023-01-15T23:11:26.311Z,1.48
2023-01-15T23:13:52.944Z,1.70
2023-01-15T23:16:19.792Z,1.80
2023-01-15T23:18:46.212Z,1.95
2023-01-15T23:21:15.593Z,1.70
2023-01-15T23:23:41.979Z,2.40
2023-01-15T23:26:13.800Z,2.00
2023-01-15T23:28:40.502Z,2.85
2023-01-15T23:31:06.995Z,1.98
2023-01-15T23:33:33.697Z,2.38
2023-01-15T23:36:00.162Z,1.92
2023-01-15T23:38:27.005Z,1.52
2023-01-15T23:40:53.637Z,1.80
2023-01-15T23:43:38.790Z,1.48
2023-01-15T23:46:21.980Z,1.35
2023-01-15T23:48:48.614Z,1.63
2023-01-15T23:51:15.156Z,1.48
2023-01-15T23:53:41.671Z,1.48
2023-01-15T23:56:08.086Z,1.80
2023-01-15T23:58:34.471Z,1.38
